Time;durP1;ratioP1;P1;durP2;ratioP2;P2;SDS_P1;SDS_P2;PMS_P1;PMS_P2;Temp;Humidity;BMP_temperature;BMP_pressure;BME280_temperature;BME280_humidity;BME280_pressure;Samples;Min_cycle;Max_cycle;Signal;HPM_P1;HPM_P2
2020/12/17 00:01:23;;;;;;;;;;;10.50;82.90;;;;;;5039959;28;19917;-83
2020/12/17 00:03:48;;;;;;;;;;;10.50;82.90;;;;;;5051657;28;20126;-83
2020/12/17 00:06:14;;;;;;;;;;;10.50;82.80;;;;;;5052068;28;20390;-83
2020/12/17 00:08:40;;;;;;;;;;;10.50;82.90;;;;;;5051550;28;20488;-83
2020/12/17 00:11:05;;;;;;;;;;;10.50;82.80;;;;;;5035285;28;19994;-83
2020/12/17 00:13:31;;;;;;;;;;;10.50;82.80;;;;;;5061958;28;19991;-83
2020/12/17 00:15:56;;;;;;;;;;;10.60;82.80;;;;;;5038355;28;19924;-83
2020/12/17 00:18:22;;;;;;;;;;;10.50;82.70;;;;;;5059976;28;19913;-83
2020/12/17 00:20:47;;;;;;;;;;;10.60;82.80;;;;;;5072429;28;19919;-83
2020/12/17 00:23:13;;;;;;;;;;;10.60;82.80;;;;;;5071719;28;19915;-83
2020/12/17 00:25:40;;;;;;;;;;;10.60;82.80;;;;;;5071247;28;20278;-83
2020/12/17 00:28:05;;;;;;;;;;;10.60;82.80;;;;;;5072687;28;20401;-83
2020/12/17 00:30:31;;;;;;;;;;;10.60;82.80;;;;;;5072614;28;19920;-83
2020/12/17 00:32:56;;;;;;;;;;;10.60;82.70;;;;;;5071550;28;19913;-83
2020/12/17 00:35:22;;;;;;;;;;;10.60;82.70;;;;;;5072861;28;19920;-83
2020/12/17 00:37:47;;;;;;;;;;;10.60;82.70;;;;;;5070953;28;19959;-83
2020/12/17 00:40:13;;;;;;;;;;;10.60;82.60;;;;;;5054574;28;19962;-83
2020/12/17 00:42:39;;;;;;;;;;;10.60;82.70;;;;;;5071020;28;19916;-83
2020/12/17 00:45:05;;;;;;;;;;;10.60;82.70;;;;;;5071145;28;19958;-83
2020/12/17 00:47:31;;;;;;;;;;;10.60;82.70;;;;;;5070592;28;20011;-83
2020/12/17 00:49:56;;;;;;;;;;;10.60;82.70;;;;;;5072542;28;20023;-83
2020/12/17 00:52:22;;;;;;;;;;;10.60;82.80;;;;;;5072475;28;19913;-83
2020/12/17 00:54:48;;;;;;;;;;;10.60;82.80;;;;;;5072073;28;19913;-83
2020/12/17 00:57:14;;;;;;;;;;;10.60;82.70;;;;;;5070937;28;19913;-83
2020/12/17 00:59:39;;;;;;;;;;;10.60;82.80;;;;;;5053806;28;19935;-82
2020/12/17 01:02:05;;;;;;;;;;;10.60;82.80;;;;;;5053819;28;20386;-83
2020/12/17 01:04:30;;;;;;;;;;;10.60;82.80;;;;;;5070026;28;19968;-83
2020/12/17 01:06:56;;;;;;;;;;;10.60;82.80;;;;;;5072052;28;19994;-83
2020/12/17 01:09:21;;;;;;;;;;;10.60;82.80;;;;;;5071979;28;19982;-83
2020/12/17 01:11:47;;;;;;;;;;;10.60;82.80;;;;;;5053702;28;20379;-83
2020/12/17 01:14:12;;;;;;;;;;;10.60;82.70;;;;;;5050500;28;20274;-83
2020/12/17 01:16:37;;;;;;;;;;;10.60;82.70;;;;;;5050335;28;20039;-83
2020/12/17 01:19:03;;;;;;;;;;;10.60;82.70;;;;;;5034044;28;19913;-83
2020/12/17 01:21:29;;;;;;;;;;;10.60;82.70;;;;;;5033754;28;20278;-83
2020/12/17 01:23:54;;;;;;;;;;;10.60;82.70;;;;;;5067247;28;19909;-83
2020/12/17 01:26:19;;;;;;;;;;;10.60;82.70;;;;;;5033892;28;20440;-83
2020/12/17 01:28:45;;;;;;;;;;;10.60;82.60;;;;;;5033581;28;19916;-83
2020/12/17 01:31:12;;;;;;;;;;;10.60;82.60;;;;;;5033900;28;19916;-83
2020/12/17 01:33:38;;;;;;;;;;;10.60;82.60;;;;;;5051391;28;19916;-83
2020/12/17 01:36:04;;;;;;;;;;;10.60;82.60;;;;;;5051692;28;19909;-83
2020/12/17 01:38:30;;;;;;;;;;;10.60;82.60;;;;;;5051134;28;19925;-83
2020/12/17 01:40:55;;;;;;;;;;;10.70;82.70;;;;;;5041166;28;19977;-83
2020/12/17 01:43:21;;;;;;;;;;;10.60;82.60;;;;;;5071610;28;19909;-83
2020/12/17 01:45:47;;;;;;;;;;;10.70;82.60;;;;;;5069763;28;19915;-83
2020/12/17 01:48:14;;;;;;;;;;;10.70;82.60;;;;;;5071145;28;19973;-83
2020/12/17 01:50:40;;;;;;;;;;;10.70;82.60;;;;;;5071044;28;19919;-83
2020/12/17 01:53:05;;;;;;;;;;;10.70;82.50;;;;;;5053508;28;19912;-83
2020/12/17 01:55:31;;;;;;;;;;;10.70;82.50;;;;;;5036382;28;20019;-83
2020/12/17 01:57:59;;;;;;;;;;;10.70;82.50;;;;;;5053289;28;19916;-83
2020/12/17 02:00:25;;;;;;;;;;;10.70;82.50;;;;;;5071056;28;19913;-83
2020/12/17 02:02:50;;;;;;;;;;;10.70;82.50;;;;;;5053200;28;20061;-83
2020/12/17 02:05:16;;;;;;;;;;;10.70;82.50;;;;;;5053235;28;19912;-83
2020/12/17 02:07:42;;;;;;;;;;;10.70;82.50;;;;;;5052700;28;20370;-83
2020/12/17 02:10:08;;;;;;;;;;;10.70;82.50;;;;;;5088410;28;20305;-83
2020/12/17 02:12:40;;;;;;;;;;;10.70;82.50;;;;;;5072831;28;20023;-83
2020/12/17 02:15:06;;;;;;;;;;;10.70;82.50;;;;;;5089411;28;19912;-83
2020/12/17 02:17:31;;;;;;;;;;;10.70;82.40;;;;;;5069219;28;19966;-83
2020/12/17 02:19:57;;;;;;;;;;;10.70;82.40;;;;;;5069877;28;19913;-83
2020/12/17 02:22:22;;;;;;;;;;;10.70;82.40;;;;;;5069500;28;20027;-83
2020/12/17 02:24:48;;;;;;;;;;;10.70;82.50;;;;;;5069437;28;19920;-83
2020/12/17 02:27:13;;;;;;;;;;;10.80;82.50;;;;;;5070910;28;19921;-83
2020/12/17 02:29:39;;;;;;;;;;;10.70;82.40;;;;;;5086272;28;20075;-83
2020/12/17 02:32:04;;;;;;;;;;;10.80;82.50;;;;;;5071023;28;19958;-83
2020/12/17 02:34:30;;;;;;;;;;;10.80;82.50;;;;;;5069411;28;19912;-83
2020/12/17 02:36:55;;;;;;;;;;;10.80;82.50;;;;;;5071037;28;19916;-83
2020/12/17 02:39:21;;;;;;;;;;;10.80;82.40;;;;;;5069629;28;19916;-83
2020/12/17 02:41:46;;;;;;;;;;;10.80;82.40;;;;;;5069540;28;19912;-83
2020/12/17 02:44:12;;;;;;;;;;;10.80;82.40;;;;;;5069626;28;19921;-83
2020/12/17 02:46:38;;;;;;;;;;;10.80;82.30;;;;;;5070598;28;19917;-83
2020/12/17 02:49:03;;;;;;;;;;;10.80;82.40;;;;;;5069661;28;20387;-83
2020/12/17 02:51:29;;;;;;;;;;;10.80;82.40;;;;;;5079289;28;20275;-83
2020/12/17 02:53:54;;;;;;;;;;;10.80;82.40;;;;;;5089473;28;19923;-83
2020/12/17 02:56:21;;;;;;;;;;;10.80;82.40;;;;;;5072933;28;20454;-83
2020/12/17 02:58:46;;;;;;;;;;;10.80;82.40;;;;;;5089011;28;19920;-83
2020/12/17 03:01:12;;;;;;;;;;;10.80;82.40;;;;;;5072827;28;19923;-83
2020/12/17 03:03:38;;;;;;;;;;;10.90;82.40;;;;;;5090551;28;20213;-83
2020/12/17 03:06:04;;;;;;;;;;;10.80;82.40;;;;;;5089585;28;20132;-83
2020/12/17 03:08:29;;;;;;;;;;;10.90;82.40;;;;;;5091518;22;19924;-90
2020/12/17 03:10:55;;;;;;;;;;;10.90;82.40;;;;;;5069790;28;19916;-89
2020/12/17 03:13:21;;;;;;;;;;;10.90;82.50;;;;;;5036921;28;20370;-89
2020/12/17 03:15:47;;;;;;;;;;;10.90;82.60;;;;;;5053144;28;19909;-89
2020/12/17 03:18:12;;;;;;;;;;;10.90;82.60;;;;;;5037219;28;20019;-89
2020/12/17 03:20:38;;;;;;;;;;;10.90;82.60;;;;;;5036301;28;19913;-89
2020/12/17 03:23:03;;;;;;;;;;;10.90;82.60;;;;;;5070097;28;19912;-90
2020/12/17 03:25:29;;;;;;;;;;;10.90;82.60;;;;;;5053500;28;19909;-89
2020/12/17 03:27:54;;;;;;;;;;;10.90;82.70;;;;;;5073302;28;19970;-89
2020/12/17 03:30:20;;;;;;;;;;;10.90;82.90;;;;;;5073530;28;19912;-89
2020/12/17 03:32:45;;;;;;;;;;;10.90;83.00;;;;;;5073053;28;19965;-89
2020/12/17 03:35:11;;;;;;;;;;;10.90;83.00;;;;;;5056973;28;19975;-88
2020/12/17 03:37:36;;;;;;;;;;;10.90;82.90;;;;;;5073329;28;20440;-87
2020/12/17 03:40:02;;;;;;;;;;;10.90;82.90;;;;;;5073531;28;19917;-87
2020/12/17 03:42:28;;;;;;;;;;;10.90;82.90;;;;;;5073483;28;20011;-87
2020/12/17 03:44:53;;;;;;;;;;;10.90;82.90;;;;;;5073216;28;20031;-86
2020/12/17 03:47:19;;;;;;;;;;;11.00;82.90;;;;;;5073278;28;19946;-87
2020/12/17 03:49:44;;;;;;;;;;;11.00;83.10;;;;;;5073188;28;19940;-87
2020/12/17 03:52:10;;;;;;;;;;;11.00;83.10;;;;;;5073341;28;19919;-88
2020/12/17 03:54:36;;;;;;;;;;;11.00;83.10;;;;;;5056177;28;19909;-88
2020/12/17 03:57:01;;;;;;;;;;;11.00;83.10;;;;;;5056897;28;20008;-87
2020/12/17 03:59:27;;;;;;;;;;;11.00;83.10;;;;;;5056573;28;20362;-87
2020/12/17 04:01:52;;;;;;;;;;;11.00;83.00;;;;;;5055781;28;19924;-87
2020/12/17 04:04:18;;;;;;;;;;;11.00;83.10;;;;;;5056438;28;19925;-87
2020/12/17 04:06:43;;;;;;;;;;;11.10;83.10;;;;;;5072282;28;20222;-87
2020/12/17 04:09:09;;;;;;;;;;;11.10;83.10;;;;;;5072780;28;20335;-87
2020/12/17 04:11:34;;;;;;;;;;;11.10;83.00;;;;;;5064277;28;19936;-87
2020/12/17 04:14:00;;;;;;;;;;;11.10;83.00;;;;;;5052768;28;20012;-87
2020/12/17 04:16:25;;;;;;;;;;;11.10;83.00;;;;;;5052664;28;19924;-87
2020/12/17 04:18:51;;;;;;;;;;;11.20;83.10;;;;;;5035697;28;19909;-87
2020/12/17 04:21:16;;;;;;;;;;;11.20;83.10;;;;;;5052481;28;19923;-87
2020/12/17 04:23:42;;;;;;;;;;;11.20;83.10;;;;;;5068942;28;19931;-87
2020/12/17 04:26:11;;;;;;;;;;;11.20;83.10;;;;;;5035906;28;19935;-88
2020/12/17 04:28:37;;;;;;;;;;;11.20;83.10;;;;;;5035352;28;19909;-87
2020/12/17 04:31:02;;;;;;;;;;;11.20;83.10;;;;;;5035882;28;19920;-87
2020/12/17 04:33:28;;;;;;;;;;;11.20;83.00;;;;;;5052272;28;20630;-87
2020/12/17 04:35:53;;;;;;;;;;;11.20;83.00;;;;;;5052198;28;19917;-87
2020/12/17 04:38:19;;;;;;;;;;;11.20;83.10;;;;;;5052003;28;20223;-87
2020/12/17 04:40:44;;;;;;;;;;;11.20;83.00;;;;;;5035951;28;19913;-87
2020/12/17 04:43:10;;;;;;;;;;;11.30;83.00;;;;;;5038799;28;19912;-87
2020/12/17 04:45:37;;;;;;;;;;;11.30;83.00;;;;;;5054986;28;19908;-87
2020/12/17 04:48:05;;;;;;;;;;;11.30;83.00;;;;;;5055573;28;19917;-87
2020/12/17 04:50:31;;;;;;;;;;;11.30;82.90;;;;;;5055372;28;20215;-87
2020/12/17 04:52:57;;;;;;;;;;;11.30;82.90;;;;;;5054758;28;20053;-87
2020/12/17 04:55:24;;;;;;;;;;;11.30;82.90;;;;;;5055258;28;19951;-87
2020/12/17 04:57:50;;;;;;;;;;;11.30;82.90;;;;;;5038080;28;19924;-87
2020/12/17 05:00:16;;;;;;;;;;;11.30;82.90;;;;;;5055443;28;19908;-87
2020/12/17 05:02:46;;;;;;;;;;;11.30;82.90;;;;;;5054734;28;19916;-88
2020/12/17 05:05:11;;;;;;;;;;;11.30;83.00;;;;;;5055006;28;20361;-88
2020/12/17 05:07:37;;;;;;;;;;;11.40;83.10;;;;;;5054539;28;20007;-88
2020/12/17 05:10:03;;;;;;;;;;;11.30;83.30;;;;;;5054758;28;19946;-88
2020/12/17 05:12:29;;;;;;;;;;;11.30;83.30;;;;;;5038195;28;20003;-87
2020/12/17 05:14:55;;;;;;;;;;;11.40;83.40;;;;;;5037485;28;20012;-88
2020/12/17 05:17:20;;;;;;;;;;;11.30;83.50;;;;;;5054554;28;19936;-88
2020/12/17 05:19:46;;;;;;;;;;;11.30;83.50;;;;;;5037720;28;19912;-87
2020/12/17 05:22:15;;;;;;;;;;;11.40;83.70;;;;;;5054830;28;19908;-88
2020/12/17 05:24:44;;;;;;;;;;;11.40;83.60;;;;;;5054181;28;19944;-87
2020/12/17 05:27:10;;;;;;;;;;;11.40;83.60;;;;;;5054010;28;19973;-88
2020/12/17 05:29:39;;;;;;;;;;;11.40;83.60;;;;;;5054526;28;19915;-88
2020/12/17 05:32:10;;;;;;;;;;;11.40;83.60;;;;;;5053655;28;19916;-88
2020/12/17 05:34:36;;;;;;;;;;;11.40;83.60;;;;;;5054310;28;20321;-88
2020/12/17 05:37:05;;;;;;;;;;;11.40;83.60;;;;;;5052882;28;19924;-89
2020/12/17 05:39:30;;;;;;;;;;;11.40;83.60;;;;;;5071327;28;19999;-89
2020/12/17 05:41:56;;;;;;;;;;;11.40;83.60;;;;;;5071090;28;20019;-89
2020/12/17 05:44:28;;;;;;;;;;;11.40;83.60;;;;;;5055253;28;19908;-89
2020/12/17 05:46:54;;;;;;;;;;;11.40;83.70;;;;;;5054107;28;19950;-89
2020/12/17 05:49:24;;;;;;;;;;;11.40;83.80;;;;;;5054170;28;19913;-89
2020/12/17 05:51:51;;;;;;;;;;;11.40;83.70;;;;;;5054580;28;20362;-90
2020/12/17 05:54:26;;;;;;;;;;;11.50;83.80;;;;;;5054482;28;19920;-89
2020/12/17 05:57:07;;;;;;;;;;;11.50;83.70;;;;;;5054021;28;19916;-89
2020/12/17 05:59:33;;;;;;;;;;;11.50;83.80;;;;;;5070799;28;19951;-89
2020/12/17 06:02:18;;;;;;;;;;;11.50;83.80;;;;;;5054182;28;20294;-89
2020/12/17 06:04:44;;;;;;;;;;;11.50;83.70;;;;;;5054505;28;19908;-89
2020/12/17 06:07:13;;;;;;;;;;;11.50;83.70;;;;;;5071172;28;19923;-89
2020/12/17 06:09:42;;;;;;;;;;;11.50;83.80;;;;;;5067655;28;19990;-89
2020/12/17 06:12:08;;;;;;;;;;;11.50;83.70;;;;;;5054230;28;19969;-89
2020/12/17 06:14:34;;;;;;;;;;;11.50;83.80;;;;;;5054513;28;20278;-89
2020/12/17 06:17:02;;;;;;;;;;;11.50;83.70;;;;;;5087944;28;19917;-88
2020/12/17 06:19:28;;;;;;;;;;;11.50;83.70;;;;;;5054393;28;19915;-89
2020/12/17 06:21:54;;;;;;;;;;;11.50;83.70;;;;;;5070874;28;20366;-89
2020/12/17 06:24:20;;;;;;;;;;;11.50;83.80;;;;;;5087269;28;19924;-88
2020/12/17 06:26:49;;;;;;;;;;;11.50;83.80;;;;;;5071712;28;19913;-86
2020/12/17 06:29:17;;;;;;;;;;;11.50;83.70;;;;;;5054096;28;20360;-86
2020/12/17 06:31:52;;;;;;;;;;;11.50;83.70;;;;;;5053207;28;19913;-85
2020/12/17 06:34:18;;;;;;;;;;;11.50;83.70;;;;;;5054168;28;19913;-86
2020/12/17 06:36:45;;;;;;;;;;;11.50;83.70;;;;;;5052278;28;19935;-90
2020/12/17 06:39:10;;;;;;;;;;;11.50;83.70;;;;;;5044164;28;19908;-89
2020/12/17 06:41:36;;;;;;;;;;;11.50;83.70;;;;;;5053304;28;19916;-90
2020/12/17 06:44:21;;;;;;;;;;;11.50;83.70;;;;;;5052665;28;19962;-90
2020/12/17 06:46:52;;;;;;;;;;;11.50;83.70;;;;;;5051959;28;19909;-90
2020/12/17 06:49:22;;;;;;;;;;;11.50;83.70;;;;;;5051559;28;20003;-90
2020/12/17 06:51:59;;;;;;;;;;;11.50;83.70;;;;;;5071222;28;19980;-90
2020/12/17 06:54:25;;;;;;;;;;;11.50;83.70;;;;;;5053977;28;19909;-90
2020/12/17 06:57:04;;;;;;;;;;;11.50;83.70;;;;;;5053159;28;19923;-90
2020/12/17 06:59:29;;;;;;;;;;;11.50;83.70;;;;;;5054392;28;20431;-90
2020/12/17 07:01:55;;;;;;;;;;;11.50;83.70;;;;;;5055202;28;19920;-90
2020/12/17 07:04:37;;;;;;;;;;;11.50;83.80;;;;;;5057322;28;19912;-89
2020/12/17 07:07:09;;;;;;;;;;;11.50;83.80;;;;;;5075333;28;19916;-90
2020/12/17 07:09:35;;;;;;;;;;;11.50;83.80;;;;;;5057653;28;20336;-89
2020/12/17 07:12:00;;;;;;;;;;;11.40;83.70;;;;;;5091220;28;19913;-89
2020/12/17 07:14:25;;;;;;;;;;;11.50;83.90;;;;;;5074346;28;20272;-89
2020/12/17 07:16:55;;;;;;;;;;;11.40;83.80;;;;;;5057294;28;19913;-89
2020/12/17 07:19:25;;;;;;;;;;;11.40;83.70;;;;;;5057734;28;19909;-89
2020/12/17 07:21:51;;;;;;;;;;;11.40;83.70;;;;;;5057261;28;19930;-88
2020/12/17 07:24:36;;;;;;;;;;;11.40;83.70;;;;;;5056450;28;20207;-87
2020/12/17 07:27:15;;;;;;;;;;;11.40;83.60;;;;;;5057211;28;19908;-87
2020/12/17 07:30:00;;;;;;;;;;;11.40;83.70;;;;;;5073725;28;19964;-87
2020/12/17 07:32:27;;;;;;;;;;;11.40;83.60;;;;;;5057434;28;19915;-86
2020/12/17 07:34:53;;;;;;;;;;;11.40;83.70;;;;;;5055997;28;20400;-86
2020/12/17 07:37:35;;;;;;;;;;;11.40;83.70;;;;;;5057011;28;19928;-87
2020/12/17 07:40:20;;;;;;;;;;;11.40;83.70;;;;;;5072968;28;20362;-87
2020/12/17 07:42:55;;;;;;;;;;;11.40;83.60;;;;;;5056714;28;19920;-86
2020/12/17 07:45:39;;;;;;;;;;;11.40;83.60;;;;;;5074813;28;19999;-87
2020/12/17 07:48:23;;;;;;;;;;;11.30;83.60;;;;;;5056604;28;19998;-86
2020/12/17 07:50:55;;;;;;;;;;;11.30;83.50;;;;;;5056495;28;19909;-86
2020/12/17 07:53:24;;;;;;;;;;;11.30;83.50;;;;;;5057221;28;19997;-87
2020/12/17 07:55:50;;;;;;;;;;;11.30;83.50;;;;;;5056599;28;19909;-87
2020/12/17 07:58:16;;;;;;;;;;;11.30;83.50;;;;;;5056589;28;19956;-86
2020/12/17 08:00:42;;;;;;;;;;;11.30;83.50;;;;;;5056338;28;19935;-86
2020/12/17 08:03:08;;;;;;;;;;;11.30;83.50;;;;;;5075143;28;19908;-87
2020/12/17 08:05:34;;;;;;;;;;;11.30;83.40;;;;;;5057103;28;20479;-86
2020/12/17 08:07:59;;;;;;;;;;;11.30;83.40;;;;;;5073297;28;19920;-87
2020/12/17 08:10:25;;;;;;;;;;;11.30;83.50;;;;;;5039286;28;19960;-87
2020/12/17 08:12:50;;;;;;;;;;;11.20;83.40;;;;;;5053659;28;20269;-87
2020/12/17 08:15:16;;;;;;;;;;;11.20;83.30;;;;;;5053240;28;19913;-85
2020/12/17 08:17:47;;;;;;;;;;;11.20;83.30;;;;;;5053415;28;19917;-87
2020/12/17 08:20:15;;;;;;;;;;;11.20;83.30;;;;;;5036668;28;19924;-86
2020/12/17 08:22:41;;;;;;;;;;;11.20;83.40;;;;;;5036545;28;20358;-86
2020/12/17 08:25:07;;;;;;;;;;;11.20;83.30;;;;;;5036439;28;19909;-87
2020/12/17 08:27:33;;;;;;;;;;;11.20;83.30;;;;;;5070032;28;19940;-86
2020/12/17 08:30:00;;;;;;;;;;;11.10;83.30;;;;;;5052215;28;20338;-86
2020/12/17 08:32:26;;;;;;;;;;;11.20;83.30;;;;;;5035941;28;19912;-86
2020/12/17 08:34:53;;;;;;;;;;;11.20;83.30;;;;;;5036150;28;19966;-86
2020/12/17 08:37:19;;;;;;;;;;;11.10;83.20;;;;;;5019720;28;19920;-86
2020/12/17 08:39:44;;;;;;;;;;;11.10;83.20;;;;;;5018585;28;19916;-86
2020/12/17 08:42:12;;;;;;;;;;;11.10;83.10;;;;;;5052729;28;19948;-85
2020/12/17 08:44:38;;;;;;;;;;;11.10;83.20;;;;;;5035956;28;20425;-86
2020/12/17 08:47:07;;;;;;;;;;;11.10;83.20;;;;;;5035780;28;19913;-86
2020/12/17 08:49:33;;;;;;;;;;;11.10;83.20;;;;;;5019768;28;19924;-86
2020/12/17 08:51:59;;;;;;;;;;;11.10;83.20;;;;;;5035768;28;19909;-86
2020/12/17 08:54:43;;;;;;;;;;;11.10;83.20;;;;;;5036046;28;19943;-86
2020/12/17 08:57:10;;;;;;;;;;;11.10;83.20;;;;;;5035532;28;19913;-86
2020/12/17 08:59:36;;;;;;;;;;;11.10;83.20;;;;;;5018693;28;19963;-85
2020/12/17 09:02:01;;;;;;;;;;;11.10;83.20;;;;;;5035108;28;19921;-87
2020/12/17 09:04:28;;;;;;;;;;;11.10;83.20;;;;;;5039219;28;20355;-86
2020/12/17 09:06:55;;;;;;;;;;;11.10;83.20;;;;;;5031968;28;19920;-86
2020/12/17 09:09:27;;;;;;;;;;;11.10;83.20;;;;;;5079463;22;19932;-83
2020/12/17 09:11:54;;;;;;;;;;;11.10;83.20;;;;;;5054425;28;19909;-83
2020/12/17 09:14:26;;;;;;;;;;;11.10;83.10;;;;;;5054618;28;20398;-84
2020/12/17 09:16:52;;;;;;;;;;;11.10;83.20;;;;;;5054270;28;19966;-83
2020/12/17 09:19:19;;;;;;;;;;;11.10;83.10;;;;;;5035908;28;20185;-83
2020/12/17 09:21:53;;;;;;;;;;;11.10;83.20;;;;;;5057925;28;19912;-85
2020/12/17 09:24:25;;;;;;;;;;;11.10;83.10;;;;;;5073957;28;20353;-84
2020/12/17 09:26:50;;;;;;;;;;;11.10;83.20;;;;;;5074399;28;19908;-84
2020/12/17 09:29:16;;;;;;;;;;;11.10;83.30;;;;;;5058048;28;19912;-84
2020/12/17 09:31:42;;;;;;;;;;;11.10;83.20;;;;;;5074775;28;19908;-84
2020/12/17 09:34:12;;;;;;;;;;;11.10;83.20;;;;;;5038014;28;19935;-84
2020/12/17 09:36:56;;;;;;;;;;;11.10;83.10;;;;;;5054305;28;19916;-84
2020/12/17 09:39:35;;;;;;;;;;;11.10;83.10;;;;;;5054326;28;19916;-84
2020/12/17 09:45:17;;;;;;;;;;;11.10;83.10;;;;;;5072074;28;19939;-84
2020/12/17 09:47:43;;;;;;;;;;;11.10;83.00;;;;;;5054327;28;19908;-85
2020/12/17 09:50:13;;;;;;;;;;;11.20;83.10;;;;;;5054145;28;19916;-84
2020/12/17 09:52:39;;;;;;;;;;;11.20;83.10;;;;;;5054667;28;19991;-84
2020/12/17 09:55:05;;;;;;;;;;;11.20;83.10;;;;;;5053710;28;19962;-84
2020/12/17 09:57:49;;;;;;;;;;;11.10;83.00;;;;;;5054051;28;19962;-84
2020/12/17 10:00:15;;;;;;;;;;;11.20;83.70;;;;;;5054304;28;19920;-83
2020/12/17 10:02:41;;;;;;;;;;;11.20;83.10;;;;;;5050560;28;19916;-84
2020/12/17 10:05:07;;;;;;;;;;;11.20;83.10;;;;;;5035373;28;19917;-82
2020/12/17 10:07:33;;;;;;;;;;;11.20;83.10;;;;;;5053391;28;20274;-83
2020/12/17 10:09:58;;;;;;;;;;;11.20;83.10;;;;;;5053359;28;19920;-85
2020/12/17 10:12:24;;;;;;;;;;;11.20;83.10;;;;;;5053405;28;19916;-83
2020/12/17 10:14:50;;;;;;;;;;;11.20;83.20;;;;;;5071426;28;20355;-83
2020/12/17 10:17:15;;;;;;;;;;;11.20;83.10;;;;;;5036723;28;20030;-84
2020/12/17 10:19:41;;;;;;;;;;;11.20;83.10;;;;;;5070890;28;19916;-83
2020/12/17 10:22:06;;;;;;;;;;;11.30;83.10;;;;;;5053721;28;20034;-83
2020/12/17 10:24:32;;;;;;;;;;;11.30;83.10;;;;;;5055112;28;19909;-84
2020/12/17 10:26:57;;;;;;;;;;;11.30;83.10;;;;;;5071883;28;20362;-84
2020/12/17 10:29:23;;;;;;;;;;;11.30;83.10;;;;;;5088028;28;19917;-83
2020/12/17 10:31:55;;;;;;;;;;;11.30;83.00;;;;;;5054619;28;19920;-84
2020/12/17 10:34:21;;;;;;;;;;;11.30;83.00;;;;;;5055053;28;19913;-84
2020/12/17 10:37:06;;;;;;;;;;;11.30;83.50;;;;;;5058536;28;19919;-84
2020/12/17 10:39:32;;;;;;;;;;;11.40;83.00;;;;;;5059519;28;20284;-84
2020/12/17 10:42:00;;;;;;;;;;;11.30;82.90;;;;;;5058929;28;19920;-84
2020/12/17 10:44:26;;;;;;;;;;;11.40;82.90;;;;;;5059012;28;19908;-84
2020/12/17 10:46:51;;;;;;;;;;;11.40;82.90;;;;;;5058747;28;19909;-84
2020/12/17 10:49:17;;;;;;;;;;;11.40;82.80;;;;;;5075597;28;19913;-84
2020/12/17 10:51:42;;;;;;;;;;;11.40;82.70;;;;;;5058788;28;20364;-84
2020/12/17 10:54:08;;;;;;;;;;;11.40;82.70;;;;;;5058807;28;20312;-84
2020/12/17 10:56:33;;;;;;;;;;;11.40;82.70;;;;;;5058812;28;19908;-84
2020/12/17 10:58:59;;;;;;;;;;;11.50;82.70;;;;;;5041725;28;19935;-84
2020/12/17 11:01:25;;;;;;;;;;;11.40;82.60;;;;;;5058813;28;19912;-84
2020/12/17 11:03:53;;;;;;;;;;;11.50;82.60;;;;;;5041876;28;19913;-84
2020/12/17 11:06:21;;;;;;;;;;;11.50;82.50;;;;;;5042316;28;20353;-83
2020/12/17 11:12:05;;;;;;;;;;;11.50;82.40;;;;;;5001963;28;19936;-87
2020/12/17 11:14:31;;;;;;;;;;;11.60;82.40;;;;;;5022353;28;20362;-86
2020/12/17 11:16:56;;;;;;;;;;;11.50;82.20;;;;;;5021885;28;19920;-87
2020/12/17 11:19:22;;;;;;;;;;;11.60;82.20;;;;;;5022160;28;20309;-86
2020/12/17 11:21:47;;;;;;;;;;;11.60;82.10;;;;;;5022005;28;19939;-86
2020/12/17 11:24:13;;;;;;;;;;;11.60;82.00;;;;;;5038308;28;19913;-87
2020/12/17 11:26:43;;;;;;;;;;;11.60;81.90;;;;;;5022120;28;20013;-87
2020/12/17 11:29:08;;;;;;;;;;;11.70;81.90;;;;;;5021423;28;19913;-87
2020/12/17 11:31:34;;;;;;;;;;;11.60;81.70;;;;;;5056182;28;19936;-86
2020/12/17 11:34:04;;;;;;;;;;;11.70;81.70;;;;;;5056334;28;19917;-86
2020/12/17 11:36:30;;;;;;;;;;;11.70;81.50;;;;;;5038515;28;20255;-87
2020/12/17 11:38:55;;;;;;;;;;;11.70;81.40;;;;;;5021405;28;19919;-87
2020/12/17 11:41:21;;;;;;;;;;;11.70;81.40;;;;;;5038543;28;20413;-86
2020/12/17 11:43:46;;;;;;;;;;;11.80;81.40;;;;;;5021838;28;19913;-86
2020/12/17 11:46:12;;;;;;;;;;;11.80;81.20;;;;;;5037646;28;19913;-86
2020/12/17 11:48:37;;;;;;;;;;;11.80;81.00;;;;;;5020956;28;19912;-87
2020/12/17 11:51:29;;;;;;;;;;;11.80;81.00;;;;;;5021302;28;20002;-86
2020/12/17 11:53:55;;;;;;;;;;;11.80;81.00;;;;;;5037940;28;19948;-87
2020/12/17 11:56:20;;;;;;;;;;;11.80;81.00;;;;;;5038541;28;19915;-87
2020/12/17 11:58:46;;;;;;;;;;;11.80;80.90;;;;;;5037972;28;19909;-87
2020/12/17 12:01:14;;;;;;;;;;;11.80;80.80;;;;;;5037587;28;19913;-87
2020/12/17 12:03:40;;;;;;;;;;;11.80;80.80;;;;;;5021284;28;20761;-86
2020/12/17 12:06:06;;;;;;;;;;;11.80;80.90;;;;;;5017906;28;19913;-86
2020/12/17 12:08:31;;;;;;;;;;;11.90;80.90;;;;;;5003252;28;20280;-86
2020/12/17 12:10:57;;;;;;;;;;;11.90;80.90;;;;;;5053942;28;20389;-87
2020/12/17 12:13:23;;;;;;;;;;;11.90;80.90;;;;;;5037575;28;20588;-87
2020/12/17 12:15:48;;;;;;;;;;;12.00;80.90;;;;;;5053959;28;19982;-86
2020/12/17 12:18:14;;;;;;;;;;;12.00;80.90;;;;;;5052561;28;19921;-87
2020/12/17 12:20:39;;;;;;;;;;;12.00;80.70;;;;;;5070144;28;20269;-87
2020/12/17 12:23:05;;;;;;;;;;;12.00;80.60;;;;;;5039661;28;19924;-87
2020/12/17 12:25:31;;;;;;;;;;;12.00;80.50;;;;;;5056698;28;19915;-87
2020/12/17 12:27:56;;;;;;;;;;;12.00;80.30;;;;;;5056036;28;19935;-87
2020/12/17 12:30:22;;;;;;;;;;;12.00;80.10;;;;;;5052620;28;19968;-87
2020/12/17 12:33:06;;;;;;;;;;;12.00;79.80;;;;;;5053020;28;19994;-86
2020/12/17 12:35:31;;;;;;;;;;;12.00;79.80;;;;;;5034564;28;19920;-87
2020/12/17 12:37:58;;;;;;;;;;;12.00;79.70;;;;;;5051047;28;19921;-87
2020/12/17 12:40:23;;;;;;;;;;;12.00;79.70;;;;;;5065910;28;19912;-87
2020/12/17 12:42:49;;;;;;;;;;;12.00;79.80;;;;;;5040594;28;19916;-87
2020/12/17 12:45:20;;;;;;;;;;;12.00;79.80;;;;;;5073551;28;19931;-86
2020/12/17 12:47:46;;;;;;;;;;;12.00;79.70;;;;;;5056910;28;19908;-86
2020/12/17 12:50:11;;;;;;;;;;;12.00;79.70;;;;;;5056981;28;20114;-86
2020/12/17 12:52:37;;;;;;;;;;;12.00;79.50;;;;;;5057168;28;19909;-86
2020/12/17 12:55:03;;;;;;;;;;;12.00;79.50;;;;;;5056651;28;20304;-87
2020/12/17 12:57:29;;;;;;;;;;;12.00;79.50;;;;;;5071443;28;19968;-87
2020/12/17 12:59:54;;;;;;;;;;;12.00;79.40;;;;;;5051545;28;19917;-87
2020/12/17 13:02:20;;;;;;;;;;;12.00;79.40;;;;;;5055512;28;19913;-87
2020/12/17 13:04:45;;;;;;;;;;;12.00;79.40;;;;;;5055325;28;19963;-87
2020/12/17 13:07:13;;;;;;;;;;;12.00;79.40;;;;;;5056260;28;19913;-87
2020/12/17 13:09:39;;;;;;;;;;;12.00;79.30;;;;;;5056222;28;20337;-86
2020/12/17 13:12:04;;;;;;;;;;;12.00;79.40;;;;;;5073282;28;19924;-86
2020/12/17 13:14:30;;;;;;;;;;;12.00;79.30;;;;;;5072791;28;20003;-87
2020/12/17 13:16:55;;;;;;;;;;;12.00;79.10;;;;;;5055996;28;19923;-86
2020/12/17 13:19:24;;;;;;;;;;;12.00;79.20;;;;;;5053432;28;19920;-87
2020/12/17 13:21:49;;;;;;;;;;;12.00;79.20;;;;;;5053301;28;20011;-87
2020/12/17 13:24:15;;;;;;;;;;;12.10;79.30;;;;;;5054136;28;20006;-87
2020/12/17 13:26:40;;;;;;;;;;;12.10;79.20;;;;;;5036616;28;19909;-87
2020/12/17 13:29:07;;;;;;;;;;;12.10;79.30;;;;;;5045933;28;19947;-86
2020/12/17 13:31:32;;;;;;;;;;;12.10;79.30;;;;;;5055474;28;19913;-87
2020/12/17 13:33:58;;;;;;;;;;;12.10;79.00;;;;;;5022215;28;19970;-87
2020/12/17 13:36:24;;;;;;;;;;;12.10;79.00;;;;;;5039499;28;20407;-87
2020/12/17 13:38:50;;;;;;;;;;;12.10;78.90;;;;;;5056321;28;19950;-87
2020/12/17 13:41:16;;;;;;;;;;;12.10;78.80;;;;;;5039265;28;19913;-87
2020/12/17 13:46:47;;;;;;;;;;;12.10;78.80;;;;;;5073941;28;19923;-87
2020/12/17 13:49:14;;;;;;;;;;;12.10;78.40;;;;;;5072391;28;19912;-86
2020/12/17 13:51:40;;;;;;;;;;;12.10;78.40;;;;;;5067967;28;19944;-87
2020/12/17 13:54:07;;;;;;;;;;;12.10;78.20;;;;;;5037296;28;19917;-87
2020/12/17 13:59:54;;;;;;;;;;;12.10;78.40;;;;;;5072779;28;20421;-87
2020/12/17 14:05:37;;;;;;;;;;;12.10;78.20;;;;;;5074486;28;19916;-87
2020/12/17 14:11:26;;;;;;;;;;;12.10;78.10;;;;;;4992125;28;20016;-87
2020/12/17 14:13:53;;;;;;;;;;;12.10;78.00;;;;;;5020522;28;19917;-87
2020/12/17 14:16:33;;;;;;;;;;;12.10;78.10;;;;;;5072396;28;19913;-87
2020/12/17 14:19:09;;;;;;;;;;;12.10;78.00;;;;;;5073313;28;19920;-88
2020/12/17 14:25:16;;;;;;;;;;;12.10;78.00;;;;;;5025666;28;19920;-86
2020/12/17 14:27:51;;;;;;;;;;;12.10;77.80;;;;;;5011951;28;19909;-87
2020/12/17 14:33:38;;;;;;;;;;;12.00;77.20;;;;;;5011779;28;19925;-86
2020/12/17 14:36:10;;;;;;;;;;;12.00;77.00;;;;;;5014186;28;19979;-86
2020/12/17 14:41:59;;;;;;;;;;;12.00;77.40;;;;;;5025165;28;19999;-86
2020/12/17 15:08:08;;;;;;;;;;;11.80;76.90;;;;;;3434303;22;20262;-85
2020/12/17 15:10:34;;;;;;;;;;;11.80;77.00;;;;;;5016108;28;20417;-84